Time;durP1;ratioP1;P1;durP2;ratioP2;P2;SDS_P1;SDS_P2;PMS_P1;PMS_P2;Temp;Humidity;BMP_temperature;BMP_pressure;BME280_temperature;BME280_humidity;BME280_pressure;Samples;Min_cycle;Max_cycle;Signal;HPM_P1;HPM_P2
2022/08/24 00:04:15;;;;;;;;;;;;;;;;;;21252475;27;19924;-56
2022/08/24 00:14:16;;;;;;;;;;;;;;;;;;21253035;27;19924;-59
2022/08/24 00:24:18;;;;;;;;;;;;;;;;;;21250976;27;20030;-59
2022/08/24 00:34:20;;;;;;;;;;;;;;;;;;21251836;27;19930;-61
2022/08/24 00:44:22;;;;;;;;;;;;;;;;;;21249906;27;19930;-61
2022/08/24 00:54:24;;;;;;;;;;;;;;;;;;21252183;27;20018;-56
2022/08/24 01:04:27;;;;;;;;;;;;;;;;;;21212827;27;20345;-56
2022/08/24 01:14:29;;;;;;;;;;;;;;;;;;21165542;28;19927;-57
2022/08/24 01:24:30;;;;;;;;;;;;;;;;;;21165142;28;19946;-57
2022/08/24 01:34:32;;;;;;;;;;;;;;;;;;21162043;28;19949;-63
2022/08/24 01:44:35;;;;;;;;;;;;;;;;;;21162755;28;20319;-62
2022/08/24 01:54:39;;;;;;;;;;;;;;;;;;21161298;28;19924;-60
2022/08/24 02:04:41;;;;;;;;;;;;;;;;;;21165571;27;19976;-56
2022/08/24 02:14:43;;;;;;;;;;;;;;;;;;21176352;28;19924;-60
2022/08/24 02:24:46;;;;;;;;;;;;;;;;;;21175848;28;19938;-58
2022/08/24 02:34:49;;;;;;;;;;;;;;;;;;21174902;28;19924;-60
2022/08/24 02:44:51;;;;;;;;;;;;;;;;;;21175016;28;19930;-60
2022/08/24 02:54:53;;;;;;;;;;;;;;;;;;21156073;28;19924;-61
2022/08/24 03:04:55;;;;;;;;;;;;;;;;;;21172152;28;19935;-55
2022/08/24 03:14:57;;;;;;;;;;;;;;;;;;21171382;28;19931;-56
2022/08/24 03:25:00;;;;;;;;;;;;;;;;;;21169974;28;20190;-56
2022/08/24 03:35:03;;;;;;;;;;;;;;;;;;21170363;28;19968;-55
2022/08/24 03:45:05;;;;;;;;;;;;;;;;;;21170974;28;19927;-57
2022/08/24 03:55:07;;;;;;;;;;;;;;;;;;21168772;28;20012;-55
2022/08/24 04:05:09;;;;;;;;;;;;;;;;;;21168006;27;20395;-53
2022/08/24 04:15:11;;;;;;;;;;;;;;;;;;21167167;28;20014;-56
2022/08/24 04:25:13;;;;;;;;;;;;;;;;;;21165301;28;19923;-56
2022/08/24 04:35:16;;;;;;;;;;;;;;;;;;21165156;28;19967;-55
2022/08/24 04:45:18;;;;;;;;;;;;;;;;;;21164587;28;19975;-56
2022/08/24 04:55:20;;;;;;;;;;;;;;;;;;21165308;28;20367;-56
2022/08/24 05:05:22;;;;;;;;;;;;;;;;;;21163461;28;19948;-55
2022/08/24 05:15:24;;;;;;;;;;;;;;;;;;21164909;28;19923;-56
2022/08/24 05:25:26;;;;;;;;;;;;;;;;;;21163410;28;19924;-53
2022/08/24 05:35:29;;;;;;;;;;;;;;;;;;21162847;28;19950;-57
2022/08/24 05:45:31;;;;;;;;;;;;;;;;;;21178967;28;19930;-55
2022/08/24 05:55:33;;;;;;;;;;;;;;;;;;21178433;28;20016;-56
2022/08/24 06:05:36;;;;;;;;;;;;;;;;;;21177174;28;19946;-56
2022/08/24 06:15:38;;;;;;;;;;;;;;;;;;21177012;28;20307;-55
2022/08/24 06:36:18;;;;;;;;;;;;;;;;;;20832412;28;20340;-56
2022/08/24 06:46:20;;;;;;;;;;;;;;;;;;20832046;28;19925;-54
2022/08/24 06:56:21;;;;;;;;;;;;;;;;;;20830827;28;20057;-54
2022/08/24 07:06:23;;;;;;;;;;;;;;;;;;21008853;28;20446;-63
2022/08/24 07:16:25;;;;;;;;;;;;;;;;;;21172380;28;20000;-55
2022/08/24 07:26:27;;;;;;;;;;;;;;;;;;21171744;28;19927;-54
2022/08/24 07:36:29;;;;;;;;;;;;;;;;;;21170409;28;19928;-54
2022/08/24 07:46:32;;;;;;;;;;;;;;;;;;21169477;28;19928;-61
2022/08/24 07:56:34;;;;;;;;;;;;;;;;;;21151004;28;20022;-57
2022/08/24 08:06:36;;;;;;;;;;;;;;;;;;21168200;28;19930;-54
2022/08/24 08:16:38;;;;;;;;;;;;;;;;;;21166362;28;19977;-56
2022/08/24 08:26:40;;;;;;;;;;;;;;;;;;21165611;28;19984;-55
2022/08/24 08:36:42;;;;;;;;;;;;;;;;;;21164912;28;19923;-52
2022/08/24 08:46:43;;;;;;;;;;;;;;;;;;21165004;28;20351;-56
2022/08/24 08:56:45;;;;;;;;;;;;;;;;;;21164628;28;19947;-55
2022/08/24 09:06:48;;;;;;;;;;;;;;;;;;21164230;28;20450;-54
2022/08/24 09:16:51;;;;;;;;;;;;;;;;;;21166815;28;20294;-56
2022/08/24 09:26:53;;;;;;;;;;;;;;;;;;21162750;28;19931;-54
2022/08/24 09:36:55;;;;;;;;;;;;;;;;;;21162259;28;19934;-55
2022/08/24 09:46:57;;;;;;;;;;;;;;;;;;21144116;28;19931;-56
2022/08/24 09:56:59;;;;;;;;;;;;;;;;;;21164789;28;19928;-55
2022/08/24 10:07:00;;;;;;;;;;;;;;;;;;21162002;28;19928;-55
2022/08/24 10:17:02;;;;;;;;;;;;;;;;;;21160198;28;19930;-55
2022/08/24 10:27:04;;;;;;;;;;;;;;;;;;21166935;28;19996;-56
2022/08/24 10:37:06;;;;;;;;;;;;;;;;;;21175045;28;20038;-55
2022/08/24 10:47:08;;;;;;;;;;;;;;;;;;21174524;28;19929;-57
2022/08/24 10:57:10;;;;;;;;;;;;;;;;;;21174540;28;20333;-57
2022/08/24 11:07:12;;;;;;;;;;;;;;;;;;21172874;28;19931;-54
2022/08/24 11:17:13;;;;;;;;;;;;;;;;;;21172218;28;20003;-55
2022/08/24 11:27:15;;;;;;;;;;;;;;;;;;21170815;28;19955;-56
2022/08/24 11:37:16;;;;;;;;;;;;;;;;;;21168988;28;20027;-55
2022/08/24 11:47:18;;;;;;;;;;;;;;;;;;21169629;28;19928;-55
2022/08/24 11:57:21;;;;;;;;;;;;;;;;;;21169156;28;19923;-55
2022/08/24 12:07:22;;;;;;;;;;;;;;;;;;21167604;28;19923;-55
2022/08/24 12:17:24;;;;;;;;;;;;;;;;;;21167040;28;19930;-55
2022/08/24 12:27:26;;;;;;;;;;;;;;;;;;21166206;28;19985;-55
2022/08/24 12:37:28;;;;;;;;;;;;;;;;;;21164922;28;19923;-55
2022/08/24 12:47:29;;;;;;;;;;;;;;;;;;21163641;28;19971;-56
2022/08/24 12:57:31;;;;;;;;;;;;;;;;;;21164353;28;19974;-54
2022/08/24 13:07:33;;;;;;;;;;;;;;;;;;21163744;28;19924;-56
2022/08/24 13:17:36;;;;;;;;;;;;;;;;;;21163253;28;19924;-55
2022/08/24 13:27:38;;;;;;;;;;;;;;;;;;21162715;28;19935;-56
2022/08/24 13:37:41;;;;;;;;;;;;;;;;;;21162501;28;19981;-54
2022/08/24 13:47:43;;;;;;;;;;;;;;;;;;21143668;28;19976;-57
2022/08/24 13:57:45;;;;;;;;;;;;;;;;;;21167988;28;19924;-55
2022/08/24 14:07:47;;;;;;;;;;;;;;;;;;21180579;28;19969;-55
2022/08/24 14:17:52;;;;;;;;;;;;;;;;;;21176611;28;19935;-54
2022/08/24 14:27:54;;;;;;;;;;;;;;;;;;21175842;28;19923;-55
2022/08/24 14:37:55;;;;;;;;;;;;;;;;;;21174971;28;19969;-56
2022/08/24 14:47:57;;;;;;;;;;;;;;;;;;21175570;28;19931;-56
2022/08/24 14:58:00;;;;;;;;;;;;;;;;;;21173556;28;19935;-54
2022/08/24 15:08:01;;;;;;;;;;;;;;;;;;21172863;28;19990;-56
2022/08/24 15:18:03;;;;;;;;;;;;;;;;;;21171131;28;19978;-56
2022/08/24 15:28:06;;;;;;;;;;;;;;;;;;21171122;28;19924;-54
2022/08/24 15:38:07;;;;;;;;;;;;;;;;;;21171366;28;19963;-56
2022/08/24 15:48:09;;;;;;;;;;;;;;;;;;21169835;28;20443;-57
2022/08/24 15:58:10;;;;;;;;;;;;;;;;;;21169629;28;20299;-57
2022/08/24 16:08:13;;;;;;;;;;;;;;;;;;21168268;28;19946;-55
2022/08/24 16:18:15;;;;;;;;;;;;;;;;;;21168189;28;19930;-56
2022/08/24 16:28:17;;;;;;;;;;;;;;;;;;21165299;28;19931;-55
2022/08/24 16:38:18;;;;;;;;;;;;;;;;;;21166495;28;19930;-58
2022/08/24 16:48:20;;;;;;;;;;;;;;;;;;21164343;28;20311;-56
2022/08/24 16:58:22;;;;;;;;;;;;;;;;;;21165340;28;20363;-56
2022/08/24 17:08:25;;;;;;;;;;;;;;;;;;21163640;28;20012;-59
2022/08/24 17:18:26;;;;;;;;;;;;;;;;;;21163412;28;20298;-54
2022/08/24 17:28:28;;;;;;;;;;;;;;;;;;21163140;28;19924;-55
2022/08/24 17:38:30;;;;;;;;;;;;;;;;;;21173537;28;19923;-55
2022/08/24 17:48:33;;;;;;;;;;;;;;;;;;21179280;28;19924;-56
2022/08/24 17:59:18;;;;;;;;;;;;;;;;;;21178999;28;19969;-55
2022/08/24 18:08:57;;;;;;;;;;;;;;;;;;21183434;28;20448;-55
2022/08/24 18:18:59;;;;;;;;;;;;;;;;;;21181165;28;19924;-53
2022/08/24 18:29:01;;;;;;;;;;;;;;;;;;21156545;28;19988;-57
2022/08/24 18:39:03;;;;;;;;;;;;;;;;;;21173242;28;19984;-57
2022/08/24 18:49:05;;;;;;;;;;;;;;;;;;21172252;28;19924;-56
2022/08/24 18:59:07;;;;;;;;;;;;;;;;;;21171816;28;19928;-56
2022/08/24 19:09:09;;;;;;;;;;;;;;;;;;21171518;28;19935;-55
2022/08/24 19:19:11;;;;;;;;;;;;;;;;;;21170642;28;19924;-55
2022/08/24 19:29:13;;;;;;;;;;;;;;;;;;21169764;28;19977;-56
2022/08/24 19:39:15;;;;;;;;;;;;;;;;;;21168496;28;19924;-55
2022/08/24 19:49:17;;;;;;;;;;;;;;;;;;21168808;28;19978;-56
2022/08/24 19:59:18;;;;;;;;;;;;;;;;;;21168718;28;19924;-55
2022/08/24 20:09:20;;;;;;;;;;;;;;;;;;21168594;28;19966;-53
2022/08/24 20:19:22;;;;;;;;;;;;;;;;;;21167311;28;19935;-56
2022/08/24 20:29:24;;;;;;;;;;;;;;;;;;21167223;28;19924;-63
2022/08/24 20:39:28;;;;;;;;;;;;;;;;;;21165854;28;20006;-58
2022/08/24 20:49:30;;;;;;;;;;;;;;;;;;21167149;28;20005;-56
2022/08/24 20:59:33;;;;;;;;;;;;;;;;;;21164266;28;19972;-56
2022/08/24 21:09:36;;;;;;;;;;;;;;;;;;21163444;28;19931;-58
2022/08/24 21:19:38;;;;;;;;;;;;;;;;;;21164872;28;20317;-56
2022/08/24 21:29:39;;;;;;;;;;;;;;;;;;21165259;28;19928;-56
2022/08/24 21:39:41;;;;;;;;;;;;;;;;;;21155457;28;19931;-56
2022/08/24 21:49:43;;;;;;;;;;;;;;;;;;21163515;28;20321;-56
2022/08/24 21:59:45;;;;;;;;;;;;;;;;;;21164490;28;19947;-58
2022/08/24 22:09:47;;;;;;;;;;;;;;;;;;21240673;28;20019;-55
2022/08/24 22:19:49;;;;;;;;;;;;;;;;;;21251853;27;20383;-55
2022/08/24 22:29:51;;;;;;;;;;;;;;;;;;21264650;27;19931;-55
2022/08/24 22:39:53;;;;;;;;;;;;;;;;;;21264196;27;19930;-57
2022/08/24 22:49:55;;;;;;;;;;;;;;;;;;21263840;27;19923;-61
2022/08/24 22:59:57;;;;;;;;;;;;;;;;;;21261102;27;19943;-56
2022/08/24 23:09:59;;;;;;;;;;;;;;;;;;21258687;27;19924;-55
2022/08/24 23:20:04;;;;;;;;;;;;;;;;;;21258303;27;19972;-54
2022/08/24 23:30:06;;;;;;;;;;;;;;;;;;21256894;27;20387;-56
2022/08/24 23:40:10;;;;;;;;;;;;;;;;;;21257205;27;20031;-55
2022/08/24 23:50:12;;;;;;;;;;;;;;;;;;21254754;27;19923;-54
